Pacific Nafsika — V7KS4 — position and weather

sailwx.info

Track history (hours):
 
Tides and Currents Weather Stations Pressure Air Temp Water Temp Dewpoint Dewpoint Depression Visibility Wind Speed Wind Dir Waves Ship Positions

Pacific Nafsika

Last reported at 2018-Jun-17 21:35 UTC. Time now 2018-Jun-17 22:18 UTC.
Position N 36°49' E 001°39'.

Length 256 m; draft 14.1 m.

Type: Tanker. MMSI: 538006922.

Date/timePositionNaut miles runAvg speedWind from/ knotsBaromVisibWave heightAir tempDewpointWater temp
2018-Jun-17 21:35N 36°49' E 001°39'112.4
2018-Jun-17 21:30N 36°49' E 001°40'612.4
2018-Jun-17 21:00N 36°51' E 001°48'612.6
2018-Jun-17 20:30N 36°52' E 001°56'612.6
2018-Jun-17 20:00N 36°53' E 002°03'812.1
2018-Jun-17 19:19N 36°55' E 002°14'412.3
2018-Jun-17 18:59N 36°56' E 002°18'612.5
2018-Jun-17 18:30N 36°57' E 002°26'812.4
2018-Jun-17 17:52N 36°58' E 002°36'812.4
2018-Jun-17 17:12N 36°59' E 002°46'312.4
2018-Jun-17 16:57N 36°60' E 002°50'712.4
2018-Jun-17 16:25N 37°01' E 002°58'612.6
2018-Jun-17 15:58N 37°02' E 003°05'612.8
2018-Jun-17 15:30N 37°02' E 003°12'813.0
2018-Jun-17 14:55N 37°03' E 003°22'613.5
2018-Jun-17 14:29N 37°05' E 003°29'  
Track history (hours):
 
Tides and Currents Weather Stations Pressure Air Temp Water Temp Dewpoint Dewpoint Depression Visibility Wind Speed Wind Dir Waves Ship Positions

Pacific Nafsika

Last reported at 2018-Jun-17 21:35 UTC. Time now 2018-Jun-17 22:18 UTC.
Position N 36°49' E 001°39'.

Length 256 m; draft 14.1 m.

Type: Tanker. MMSI: 538006922.

Date/timePositionNaut miles runAvg speedWind from/ knotsBaromVisibWave heightAir tempDewpointWater temp
2018-Jun-17 21:35N 36°49' E 001°39'112.4
2018-Jun-17 21:30N 36°49' E 001°40'612.4
2018-Jun-17 21:00N 36°51' E 001°48'612.6
2018-Jun-17 20:30N 36°52' E 001°56'612.6
2018-Jun-17 20:00N 36°53' E 002°03'812.1
2018-Jun-17 19:19N 36°55' E 002°14'412.3
2018-Jun-17 18:59N 36°56' E 002°18'612.5
2018-Jun-17 18:30N 36°57' E 002°26'812.4
2018-Jun-17 17:52N 36°58' E 002°36'812.4
2018-Jun-17 17:12N 36°59' E 002°46'312.4
2018-Jun-17 16:57N 36°60' E 002°50'712.4
2018-Jun-17 16:25N 37°01' E 002°58'612.6
2018-Jun-17 15:58N 37°02' E 003°05'612.8
2018-Jun-17 15:30N 37°02' E 003°12'813.0
2018-Jun-17 14:55N 37°03' E 003°22'613.5
2018-Jun-17 14:29N 37°05' E 003°29'  

Dump ship's entire track history